aviador You're here:

KLBX Decoded Metar

ANGLETON in TX, USA
Report Time2017-08-16 14:53:00
UTC Time2017-08-16 15:02:41
Flight Rules vfr VFR
Wind190° at 14 Gusting to 21 kt
W.Decomp.*RWY 17: 13.5 kt HW 3.6 kt RCW
W.Rank190° ranks 3
Current wind is above 190° avg. (9.1)
Visibility9999 m
Phenomena:N/A
Clouds:Few 028 Hf
Scattered 041 Hf
Expected CloudBase > 2,400 ft AGL from Temp-Dew spread
CeilingNone
Temp32°C (ISA +17)
Dew Point26°C (71% RH)
Heat Index40.8°C
QNH1015 hPa
Density Alt2,336 ft
Elevation20 ft
Report Wrong Elevation
Raw Report
METAR KLBX 161453Z AUTO 19014G21KT 10SM FEW028 SCT041 32/26 A2997 RMK
AO2 SLP149 T03170256 51008=

Extra information for KLBX:More info

Metar Taf Metar & Taf Last 4 Metars F.Rules Stats Wind Profile Meteogram Temp Stats Airport Information Weather charts Add Link Nearby VenuesMetar ALERT Operation Metar Decoded Social comments

AIRNAV info for KLBX